Time;durP1;ratioP1;P1;durP2;ratioP2;P2;SDS_P1;SDS_P2;PMS_P1;PMS_P2;Temp;Humidity;BMP_temperature;BMP_pressure;BME280_temperature;BME280_humidity;BME280_pressure;Samples;Min_cycle;Max_cycle;Signal;HPM_P1;HPM_P2
2022/06/15 00:00:39;;;;;;;4.25;1.30;;;;;;;16.31;42.66;94283.56;5105796;28;20042;-78
2022/06/15 00:03:04;;;;;;;2.72;1.45;;;;;;;16.36;43.28;94283.31;5087813;28;20370;-78
2022/06/15 00:05:30;;;;;;;4.40;1.45;;;;;;;16.33;43.02;94278.63;5105796;28;20223;-78
2022/06/15 00:07:55;;;;;;;4.22;1.60;;;;;;;16.33;43.29;94284.00;5087456;28;20322;-78
2022/06/15 00:10:21;;;;;;;7.10;1.45;;;;;;;16.28;43.58;94284.22;5105699;28;20248;-78
2022/06/15 00:12:47;;;;;;;4.50;1.40;;;;;;;16.31;43.91;94280.88;5105476;28;20016;-78
2022/06/15 00:15:13;;;;;;;10.73;1.50;;;;;;;16.28;42.80;94282.31;5105221;28;20096;-78
2022/06/15 00:17:39;;;;;;;6.25;1.50;;;;;;;16.31;42.98;94280.88;5105237;28;20032;-78
2022/06/15 00:20:06;;;;;;;2.85;1.38;;;;;;;16.24;42.89;94287.59;5105237;28;20376;-78
2022/06/15 00:22:31;;;;;;;4.78;1.67;;;;;;;16.28;43.15;94276.16;5104982;28;20016;-77
2022/06/15 00:24:57;;;;;;;6.70;1.55;;;;;;;16.34;42.66;94270.19;5105225;28;20015;-78
2022/06/15 00:27:22;;;;;;;5.55;1.48;;;;;;;16.25;42.74;94264.16;5105211;28;20020;-78
2022/06/15 00:29:48;;;;;;;6.13;1.90;;;;;;;16.31;42.97;94270.09;5087231;28;20107;-78
2022/06/15 00:32:13;;;;;;;8.48;1.98;;;;;;;16.24;42.64;94268.78;5086997;28;20027;-78
2022/06/15 00:34:39;;;;;;;7.78;1.67;;;;;;;16.24;42.78;94282.22;5105127;28;20023;-78
2022/06/15 00:37:05;;;;;;;2.33;1.40;;;;;;;16.24;42.54;94271.47;5104748;28;20019;-78
2022/06/15 00:39:32;;;;;;;3.72;1.42;;;;;;;16.30;42.46;94263.16;5104985;28;20020;-78
2022/06/15 00:41:58;;;;;;;3.03;1.30;;;;;;;16.29;43.57;94272.34;5105095;28;20016;-78
2022/06/15 00:44:24;;;;;;;5.43;1.30;;;;;;;16.25;42.36;94270.31;5104706;28;20046;-77
2022/06/15 00:46:51;;;;;;;3.58;1.63;;;;;;;16.32;42.64;94275.13;5104985;28;20020;-77
2022/06/15 00:49:18;;;;;;;4.53;1.40;;;;;;;16.30;42.42;94269.31;5104557;28;20043;-76
2022/06/15 00:51:45;;;;;;;4.32;1.58;;;;;;;16.24;41.87;94273.34;5104559;28;20020;-76
2022/06/15 00:54:11;;;;;;;5.65;1.58;;;;;;;16.24;41.83;94276.84;5104763;28;20026;-77
2022/06/15 00:56:38;;;;;;;9.23;1.52;;;;;;;16.24;41.50;94268.78;5104851;28;20223;-78
2022/06/15 00:59:08;;;;;;;6.72;1.42;;;;;;;16.18;41.45;94277.38;5104639;28;20314;-80
2022/06/15 01:01:34;;;;;;;9.07;1.58;;;;;;;16.20;41.85;94281.31;5104988;28;20043;-80
2022/06/15 01:04:01;;;;;;;3.60;1.63;;;;;;;16.18;41.75;94275.50;5104337;28;20019;-80
2022/06/15 01:06:41;;;;;;;5.00;1.60;;;;;;;16.25;42.21;94280.31;5104649;28;20016;-78
2022/06/15 01:09:29;;;;;;;3.58;1.67;;;;;;;16.22;41.34;94287.16;5104647;28;20028;-78
2022/06/15 01:12:07;;;;;;;4.28;1.52;;;;;;;16.15;41.69;94283.47;5104284;28;20032;-79
2022/06/15 01:14:44;;;;;;;7.03;1.48;;;;;;;16.16;41.37;94285.81;5104062;28;20039;-79
2022/06/15 01:17:28;;;;;;;5.97;1.95;;;;;;;16.17;41.45;94290.06;5104091;28;20102;-78
2022/06/15 01:20:05;;;;;;;6.15;1.40;;;;;;;16.23;41.72;94299.47;5085939;28;20150;-78
2022/06/15 01:23:00;;;;;;;3.83;1.35;;;;;;;16.18;41.32;94291.66;5085852;28;20026;-78
2022/06/15 01:25:31;;;;;;;5.88;1.40;;;;;;;16.19;41.75;94290.50;5088692;28;20031;-78
2022/06/15 01:28:12;;;;;;;3.95;1.23;;;;;;;16.16;41.49;94293.88;5103719;28;20024;-77
2022/06/15 01:31:10;;;;;;;3.13;1.40;;;;;;;16.14;41.82;94292.63;5103585;28;20221;-77
2022/06/15 01:33:46;;;;;;;4.63;1.60;;;;;;;16.13;41.46;94297.22;5103563;28;20042;-77
2022/06/15 01:37:04;;;;;;;3.03;1.48;;;;;;;16.10;41.74;94297.13;5103696;28;20016;-77
2022/06/15 01:39:52;;;;;;;3.25;1.50;;;;;;;16.04;41.75;94305.41;5061523;28;20040;-77
2022/06/15 01:42:26;;;;;;;3.10;1.20;;;;;;;16.06;41.80;94297.03;5103621;28;20020;-77
2022/06/15 01:45:00;;;;;;;6.47;1.58;;;;;;;16.04;41.66;94288.50;5103475;28;20040;-77
2022/06/15 01:47:29;;;;;;;3.50;1.50;;;;;;;16.04;41.67;94291.19;5103458;28;20091;-77
2022/06/15 01:50:07;;;;;;;3.30;1.35;;;;;;;16.03;41.96;94298.47;5103338;28;20341;-77
2022/06/15 01:52:38;;;;;;;2.97;1.73;;;;;;;16.08;41.92;94300.16;5103452;28;20036;-77
2022/06/15 01:55:14;;;;;;;7.10;1.80;;;;;;;16.07;41.91;94295.13;5103870;28;20083;-77
2022/06/15 01:57:45;;;;;;;3.80;1.30;;;;;;;16.04;41.67;94294.66;5103571;28;20024;-77
2022/06/15 02:00:17;;;;;;;3.03;1.35;;;;;;;16.04;41.99;94296.59;5103569;28;20222;-77
2022/06/15 02:03:04;;;;;;;7.00;1.40;;;;;;;16.04;41.79;94291.97;5103291;28;20020;-77
2022/06/15 02:05:42;;;;;;;3.85;1.42;;;;;;;15.96;42.34;94297.47;5103344;28;20023;-78
2022/06/15 02:08:29;;;;;;;6.65;1.67;;;;;;;15.90;42.10;94299.59;5103493;28;20039;-78
2022/06/15 02:11:06;;;;;;;6.32;2.38;;;;;;;15.98;42.17;94297.94;5103725;28;20019;-78
2022/06/15 02:13:47;;;;;;;4.50;1.27;;;;;;;15.96;42.65;94298.25;5103334;28;20301;-78
2022/06/15 02:16:24;;;;;;;6.32;1.67;;;;;;;15.96;42.11;94303.63;5102570;28;20305;-79
2022/06/15 02:18:51;;;;;;;8.45;1.70;;;;;;;15.98;42.18;94306.00;5103472;28;20020;-79
2022/06/15 02:21:19;;;;;;;3.25;1.70;;;;;;;15.96;42.92;94292.88;5103443;28;20015;-79
2022/06/15 02:23:47;;;;;;;2.53;1.33;;;;;;;15.96;42.51;94302.84;5103313;28;20245;-77
2022/06/15 02:26:15;;;;;;;6.28;1.70;;;;;;;15.93;43.00;94292.75;5103030;28;20383;-78
2022/06/15 02:28:47;;;;;;;3.25;1.38;;;;;;;15.95;42.82;94307.41;5102895;28;20020;-79
2022/06/15 02:31:13;;;;;;;4.78;1.42;;;;;;;15.95;41.98;94295.91;5102981;28;20109;-78
2022/06/15 02:33:46;;;;;;;10.60;1.70;;;;;;;15.91;41.98;94295.78;5102988;28;20035;-78
2022/06/15 02:36:11;;;;;;;4.13;1.52;;;;;;;15.95;42.23;94298.59;5102994;28;20027;-79
2022/06/15 02:38:37;;;;;;;6.30;1.33;;;;;;;15.94;42.49;94295.13;5102813;28;20277;-79
2022/06/15 02:41:02;;;;;;;4.35;1.50;;;;;;;15.94;42.18;94278.22;5102800;28;20044;-79
2022/06/15 02:43:31;;;;;;;3.20;1.25;;;;;;;15.98;42.55;94290.63;5102913;28;20123;-79
2022/06/15 02:45:59;;;;;;;6.65;1.48;;;;;;;15.96;42.97;94289.41;5102882;28;20046;-78
2022/06/15 02:48:25;;;;;;;5.35;1.73;;;;;;;15.95;42.84;94287.81;5102816;28;20058;-78
2022/06/15 02:50:56;;;;;;;8.45;1.42;;;;;;;15.94;42.62;94291.66;5103115;28;20040;-78
2022/06/15 02:53:26;;;;;;;6.43;1.77;;;;;;;15.93;43.03;94300.81;5102779;28;20020;-78
2022/06/15 02:55:54;;;;;;;3.05;1.48;;;;;;;15.91;43.70;94292.31;5102882;28;20214;-78
2022/06/15 02:58:30;;;;;;;4.85;1.65;;;;;;;15.93;43.21;94290.06;5102634;28;20024;-78
2022/06/15 03:00:57;;;;;;;4.82;1.58;;;;;;;15.76;42.78;94288.41;5102672;28;20032;-78
2022/06/15 03:03:24;;;;;;;7.32;1.80;;;;;;;15.77;43.43;94284.56;5102883;28;20020;-78
2022/06/15 03:05:50;;;;;;;6.95;1.83;;;;;;;15.75;43.29;94293.00;5102494;28;20310;-78
2022/06/15 03:08:17;;;;;;;6.65;1.48;;;;;;;15.75;43.29;94292.19;5102622;28;20353;-78
2022/06/15 03:10:43;;;;;;;3.10;1.38;;;;;;;15.84;43.44;94287.50;5102454;28;20074;-76
2022/06/15 03:13:09;;;;;;;5.05;1.35;;;;;;;15.76;43.42;94289.16;5102546;28;20083;-76
2022/06/15 03:15:35;;;;;;;6.65;1.70;;;;;;;15.81;43.21;94288.16;5084611;28;20028;-76
2022/06/15 03:18:00;;;;;;;3.78;1.48;;;;;;;15.82;43.24;94282.44;5102306;28;20089;-76
2022/06/15 03:20:26;;;;;;;3.20;1.40;;;;;;;15.88;43.60;94279.56;5102420;28;20024;-76
2022/06/15 03:22:51;;;;;;;8.27;2.00;;;;;;;15.84;43.06;94284.81;5102580;28;20058;-77
2022/06/15 03:25:18;;;;;;;9.50;1.60;;;;;;;15.86;43.15;94293.31;5102403;28;20092;-77
2022/06/15 03:27:44;;;;;;;4.88;1.65;;;;;;;15.95;43.55;94285.13;5104313;28;20024;-76
2022/06/15 03:30:11;;;;;;;2.95;1.27;;;;;;;15.94;43.37;94288.97;5106207;28;20058;-78
2022/06/15 03:32:36;;;;;;;5.03;1.80;;;;;;;15.96;43.35;94289.41;5105923;28;20028;-76
2022/06/15 03:35:03;;;;;;;11.45;1.65;;;;;;;16.00;43.66;94288.41;5106031;28;20246;-77
2022/06/15 03:37:28;;;;;;;4.38;1.90;;;;;;;16.04;43.34;94291.19;5105871;28;20264;-76
2022/06/15 03:39:54;;;;;;;3.83;1.70;;;;;;;16.08;43.42;94302.84;5106019;28;20024;-77
2022/06/15 03:42:23;;;;;;;4.97;1.70;;;;;;;16.14;43.52;94298.81;5105817;28;20214;-77
2022/06/15 03:44:49;;;;;;;4.07;1.73;;;;;;;16.16;43.70;94296.56;5105518;28;20066;-79
2022/06/15 03:47:19;;;;;;;6.30;1.60;;;;;;;16.17;44.29;94300.03;5105770;28;20027;-79
2022/06/15 03:49:45;;;;;;;4.25;1.98;;;;;;;16.21;43.86;94296.34;5105646;28;20060;-78
2022/06/15 03:52:11;;;;;;;6.38;1.77;;;;;;;16.23;44.20;94302.16;5105445;28;20020;-78
2022/06/15 03:54:37;;;;;;;3.25;1.60;;;;;;;16.33;44.89;94310.91;5105682;28;20024;-78
2022/06/15 03:57:03;;;;;;;5.40;1.63;;;;;;;16.38;44.49;94313.34;5105629;28;20337;-78
2022/06/15 03:59:29;;;;;;;3.75;1.70;;;;;;;16.35;44.35;94303.28;5105652;28;20028;-78
2022/06/15 04:01:55;;;;;;;5.35;1.65;;;;;;;16.42;43.45;94298.09;5105668;28;20226;-79
2022/06/15 04:04:20;;;;;;;4.35;1.55;;;;;;;16.48;44.60;94306.72;5105486;28;20024;-78
2022/06/15 04:06:46;;;;;;;3.55;1.55;;;;;;;16.42;44.25;94314.25;5105299;28;20035;-78
2022/06/15 04:09:11;;;;;;;7.30;1.55;;;;;;;16.43;43.43;94305.84;5105359;28;20020;-78
2022/06/15 04:14:21;;;;;;;3.58;1.45;;;;;;;16.49;44.95;94303.69;5105391;28;20035;-78
2022/06/15 04:16:53;;;;;;;6.40;1.80;;;;;;;16.53;43.64;94309.97;5105110;28;20015;-79
2022/06/15 04:19:21;;;;;;;5.95;1.60;;;;;;;16.53;44.35;94299.22;5105061;28;20030;-79
2022/06/15 04:21:47;;;;;;;4.32;1.52;;;;;;;16.52;43.48;94304.91;5105258;28;20058;-79
2022/06/15 04:24:14;;;;;;;4.32;1.58;;;;;;;16.60;45.35;94310.16;5105189;28;20315;-79
2022/06/15 04:26:40;;;;;;;7.53;1.73;;;;;;;16.59;43.57;94314.00;5103846;28;20051;-79
2022/06/15 04:29:06;;;;;;;3.15;1.55;;;;;;;16.69;44.12;94301.19;5104835;28;20024;-78
2022/06/15 04:31:31;;;;;;;3.75;1.42;;;;;;;16.76;44.08;94312.16;5104622;28;20073;-78
2022/06/15 04:33:57;;;;;;;5.75;1.65;;;;;;;16.76;43.22;94307.56;5104927;28;20074;-78
2022/06/15 04:36:26;;;;;;;6.57;1.60;;;;;;;16.78;42.77;94317.97;5104990;28;20024;-78
2022/06/15 04:38:51;;;;;;;6.40;1.52;;;;;;;16.77;43.82;94313.72;5104196;28;20024;-78
2022/06/15 04:41:17;;;;;;;5.60;1.67;;;;;;;16.83;43.64;94307.81;5104724;28;20091;-77
2022/06/15 04:43:42;;;;;;;4.70;1.65;;;;;;;16.81;43.44;94315.44;5104631;28;20083;-77
2022/06/15 04:46:08;;;;;;;3.22;1.45;;;;;;;16.91;43.36;94321.44;5104432;28;20028;-78
2022/06/15 04:48:33;;;;;;;7.78;1.80;;;;;;;16.94;42.66;94315.41;5104379;28;20040;-80
2022/06/15 04:51:13;;;;;;;6.22;1.67;;;;;;;16.98;42.45;94313.59;5104336;28;20034;-77
2022/06/15 04:53:39;;;;;;;8.02;1.92;;;;;;;16.95;42.32;94309.66;5104335;28;20027;-78
2022/06/15 04:56:05;;;;;;;8.50;2.00;;;;;;;17.01;42.84;94310.97;5104292;28;20087;-78
2022/06/15 04:58:30;;;;;;;4.57;1.40;;;;;;;16.99;42.12;94309.75;5104079;28;20094;-78
2022/06/15 05:00:55;;;;;;;11.35;2.00;;;;;;;17.04;42.89;94318.38;5104493;28;20020;-76
2022/06/15 05:03:21;;;;;;;4.10;1.73;;;;;;;17.05;42.65;94336.09;5104409;28;20118;-76
2022/06/15 05:05:46;;;;;;;4.72;1.70;;;;;;;17.12;43.87;94338.22;5104125;28;20039;-77
2022/06/15 05:08:12;;;;;;;4.32;1.58;;;;;;;17.20;43.01;94326.50;5104114;28;20198;-77
2022/06/15 05:10:37;;;;;;;9.73;2.80;;;;;;;17.24;43.12;94324.69;5104084;28;20020;-77
2022/06/15 05:13:03;;;;;;;4.47;1.40;;;;;;;17.25;42.16;94328.16;5103876;28;20031;-77
2022/06/15 05:15:28;;;;;;;6.82;1.80;;;;;;;17.20;43.28;94325.72;5103995;28;20059;-76
2022/06/15 05:17:53;;;;;;;7.55;1.90;;;;;;;17.26;43.50;94343.22;5103907;28;20318;-77
2022/06/15 05:20:19;;;;;;;5.40;1.50;;;;;;;17.32;42.99;94336.47;5103865;28;20024;-76
2022/06/15 05:22:52;;;;;;;5.47;1.77;;;;;;;17.33;43.89;94350.69;5103782;28;20016;-83
2022/06/15 05:25:18;;;;;;;6.72;1.90;;;;;;;17.38;42.66;94342.34;5103672;28;20023;-72
2022/06/15 05:27:43;;;;;;;3.92;1.42;;;;;;;17.37;43.00;94346.97;5103234;28;20077;-72
2022/06/15 05:30:10;;;;;;;5.60;1.65;;;;;;;17.36;43.66;94348.13;5103543;28;20050;-72
2022/06/15 05:32:35;;;;;;;9.85;1.88;;;;;;;17.40;42.52;94346.28;5103222;28;20020;-72
2022/06/15 05:35:01;;;;;;;12.45;2.13;;;;;;;17.50;43.42;94344.22;5103346;28;20217;-72
2022/06/15 05:37:29;;;;;;;5.15;2.30;;;;;;;17.52;41.26;94356.22;5103350;28;20026;-71
2022/06/15 05:39:54;;;;;;;5.65;1.45;;;;;;;17.49;42.12;94342.66;5103492;28;20402;-72
2022/06/15 05:42:19;;;;;;;6.55;2.30;;;;;;;17.49;43.37;94353.44;5103121;28;20016;-72
2022/06/15 05:44:47;;;;;;;4.63;2.15;;;;;;;17.58;45.31;94362.13;5103314;28;20627;-73
2022/06/15 05:47:13;;;;;;;3.13;1.48;;;;;;;17.70;42.97;94356.69;5103597;28;20027;-72
2022/06/15 05:49:39;;;;;;;5.75;1.85;;;;;;;17.59;41.84;94358.34;5103395;28;20016;-73
2022/06/15 05:52:04;;;;;;;4.50;1.52;;;;;;;17.50;42.67;94355.00;5102416;28;20164;-73
2022/06/15 05:54:29;;;;;;;4.78;2.00;;;;;;;17.57;43.24;94355.19;5102997;28;20047;-73
2022/06/15 05:56:55;;;;;;;6.55;2.08;;;;;;;17.58;42.97;94351.34;5102991;28;20042;-73
2022/06/15 05:59:20;;;;;;;5.63;1.70;;;;;;;17.71;44.08;94357.47;5102943;28;20024;-73
2022/06/15 06:01:46;;;;;;;7.00;1.80;;;;;;;17.84;43.50;94353.59;5102641;28;20063;-73
2022/06/15 06:04:14;;;;;;;5.93;1.95;;;;;;;17.90;42.28;94356.84;5102749;28;20015;-72
2022/06/15 06:06:40;;;;;;;5.32;2.15;;;;;;;17.87;40.55;94358.31;5103019;28;20024;-73
2022/06/15 06:09:06;;;;;;;9.40;1.83;;;;;;;17.91;42.24;94361.09;5102533;28;20064;-72
2022/06/15 06:11:32;;;;;;;4.25;1.73;;;;;;;17.96;41.79;94374.31;5102744;28;20027;-72
2022/06/15 06:13:57;;;;;;;6.18;1.95;;;;;;;17.93;42.10;94362.31;5102918;28;20240;-72
2022/06/15 06:16:23;;;;;;;9.10;2.90;;;;;;;17.94;41.68;94373.88;5102677;28;20015;-77
2022/06/15 06:18:50;;;;;;;9.00;2.03;;;;;;;17.97;41.51;94362.38;5103072;28;20337;-78
2022/06/15 06:21:15;;;;;;;4.93;2.13;;;;;;;17.97;42.06;94373.19;5103177;28;20031;-90
2022/06/15 06:23:41;;;;;;;6.57;1.60;;;;;;;17.93;41.31;94386.59;5103097;28;20016;-88
2022/06/15 06:26:13;;;;;;;9.07;1.63;;;;;;;17.95;42.21;94375.44;5103083;28;20028;-90
2022/06/15 06:28:39;;;;;;;5.13;1.98;;;;;;;17.92;42.54;94370.75;5103324;28;20043;-91
2022/06/15 06:31:05;;;;;;;4.25;1.80;;;;;;;17.96;41.84;94377.78;5103224;28;20347;-92
2022/06/15 06:33:33;;;;;;;7.07;1.70;;;;;;;17.91;41.93;94369.97;5102908;28;20301;-92
2022/06/15 06:36:03;;;;;;;9.00;1.73;;;;;;;18.06;44.13;94387.28;5102401;28;20023;-84
2022/06/15 06:38:29;;;;;;;6.75;2.28;;;;;;;18.07;42.93;94385.38;5101775;28;20024;-85
2022/06/15 06:40:55;;;;;;;13.38;2.33;;;;;;;18.12;43.04;94374.34;5102797;28;20039;-77
2022/06/15 06:43:22;;;;;;;2.42;1.45;;;;;;;18.15;43.14;94369.00;5102839;28;20079;-84
2022/06/15 06:45:48;;;;;;;10.57;3.10;;;;;;;18.18;44.16;94372.94;5102457;28;20044;-83
2022/06/15 06:48:14;;;;;;;7.15;1.80;;;;;;;18.27;44.04;94370.06;5102759;28;20098;-84
2022/06/15 06:50:41;;;;;;;8.40;1.85;;;;;;;18.29;42.15;94362.41;5102646;28;20024;-79
2022/06/15 06:53:08;;;;;;;3.35;1.52;;;;;;;18.21;42.48;94370.31;5102614;28;20065;-80
2022/06/15 06:55:33;;;;;;;3.20;1.58;;;;;;;18.16;42.55;94357.09;5102599;28;20032;-80
2022/06/15 06:58:01;;;;;;;4.65;1.88;;;;;;;18.11;44.32;94373.53;5102514;28;20031;-77
2022/06/15 07:00:28;;;;;;;5.95;1.80;;;;;;;18.19;43.29;94377.19;5102951;28;20027;-84
2022/06/15 07:02:54;;;;;;;5.20;1.60;;;;;;;18.21;42.57;94372.22;5105074;28;20023;-82
2022/06/15 07:05:19;;;;;;;6.88;1.98;;;;;;;18.24;42.79;94375.03;5106549;28;20016;-76
2022/06/15 07:07:45;;;;;;;5.72;1.83;;;;;;;18.36;41.69;94374.16;5106324;28;20016;-78
2022/06/15 07:10:11;;;;;;;4.57;1.77;;;;;;;18.40;44.31;94379.63;5106415;28;20083;-77
2022/06/15 07:12:38;;;;;;;5.95;1.50;;;;;;;18.46;42.89;94378.25;5106291;28;20030;-77
2022/06/15 07:15:05;;;;;;;5.10;1.70;;;;;;;18.42;42.70;94380.84;5106342;28;20318;-80
2022/06/15 07:17:30;;;;;;;6.65;1.75;;;;;;;18.49;42.74;94372.13;5106251;28;20031;-77
2022/06/15 07:19:56;;;;;;;3.80;1.95;;;;;;;18.53;44.13;94373.00;5106161;28;20023;-78
2022/06/15 07:22:22;;;;;;;8.15;1.85;;;;;;;18.57;44.54;94373.84;5106111;28;20020;-79
2022/06/15 07:24:48;;;;;;;8.27;1.80;;;;;;;18.63;43.75;94372.44;5106173;28;20024;-79
2022/06/15 07:27:15;;;;;;;5.10;1.95;;;;;;;18.72;44.26;94377.66;5106126;28;20030;-78
2022/06/15 07:29:40;;;;;;;2.75;1.42;;;;;;;18.70;44.75;94368.34;5105936;28;20015;-78
2022/06/15 07:32:06;;;;;;;4.63;1.88;;;;;;;18.82;44.34;94379.06;5105809;28;20035;-79
2022/06/15 07:34:31;;;;;;;6.95;1.63;;;;;;;18.87;45.34;94378.00;5105981;28;20050;-81
2022/06/15 07:36:57;;;;;;;5.68;2.15;;;;;;;18.97;44.67;94380.94;5106151;28;20015;-84
2022/06/15 07:39:27;;;;;;;6.25;1.85;;;;;;;19.02;45.20;94372.53;5106019;28;20043;-79
2022/06/15 07:41:53;;;;;;;2.75;1.38;;;;;;;19.07;45.08;94370.69;5105917;28;20020;-79
2022/06/15 07:44:19;;;;;;;3.47;1.33;;;;;;;19.15;44.48;94378.63;5106099;28;20104;-80
2022/06/15 07:46:45;;;;;;;4.35;1.73;;;;;;;19.24;43.39;94378.41;5105901;28;20023;-78
2022/06/15 07:51:59;;;;;;;8.07;2.00;;;;;;;19.27;42.66;94391.19;5106111;28;20218;-80
2022/06/15 07:54:26;;;;;;;10.07;1.40;;;;;;;19.24;42.84;94383.81;5105693;28;20020;-81
2022/06/15 07:56:52;;;;;;;5.65;2.10;;;;;;;19.27;42.20;94380.38;5105811;28;20020;-80
2022/06/15 07:59:18;;;;;;;6.88;1.83;;;;;;;19.20;41.60;94389.13;5087821;28;20059;-80
2022/06/15 08:01:44;;;;;;;5.05;1.65;;;;;;;19.22;41.42;94380.69;5105286;28;20219;-79
2022/06/15 08:04:09;;;;;;;8.88;2.00;;;;;;;19.29;41.23;94383.50;5087361;28;20020;-78
2022/06/15 08:06:37;;;;;;;6.60;2.70;;;;;;;19.31;39.54;94378.53;5105777;28;20020;-80
2022/06/15 08:09:04;;;;;;;5.13;1.35;;;;;;;19.31;42.26;94375.06;5105427;28;20019;-78
2022/06/15 08:11:30;;;;;;;6.05;1.30;;;;;;;19.41;43.30;94374.47;5105023;28;20341;-78
2022/06/15 08:13:55;;;;;;;5.40;1.67;;;;;;;19.47;42.49;94405.50;5104059;28;20016;-77
2022/06/15 08:16:21;;;;;;;4.55;1.60;;;;;;;19.44;43.24;94371.06;5104876;28;20043;-77
2022/06/15 08:18:53;;;;;;;4.43;1.58;;;;;;;19.45;44.21;94376.09;5105019;28;20031;-77
2022/06/15 08:21:22;;;;;;;5.30;1.73;;;;;;;19.42;42.59;94390.34;5104814;28;20071;-77
2022/06/15 08:23:50;;;;;;;5.40;1.42;;;;;;;19.48;42.05;94384.66;5105062;28;20028;-78
2022/06/15 08:26:19;;;;;;;4.03;2.10;;;;;;;19.55;41.66;94376.69;5105051;28;20230;-77
2022/06/15 08:28:48;;;;;;;5.97;1.70;;;;;;;19.72;42.17;94380.88;5104910;28;20090;-82
2022/06/15 08:31:14;;;;;;;4.80;2.00;;;;;;;19.83;42.87;94377.25;5104600;28;20219;-82
2022/06/15 08:33:40;;;;;;;4.80;1.60;;;;;;;19.88;41.69;94381.56;5104650;28;20020;-88
2022/06/15 08:36:07;;;;;;;5.88;2.33;;;;;;;19.95;41.51;94378.22;5104694;28;20030;-78
2022/06/15 08:38:33;;;;;;;4.60;1.50;;;;;;;20.13;40.63;94390.13;5104540;28;20024;-78
2022/06/15 08:41:03;;;;;;;4.03;1.70;;;;;;;20.22;40.97;94381.78;5086619;28;20024;-79
2022/06/15 08:43:55;;;;;;;2.65;1.33;;;;;;;20.26;41.70;94382.59;5104340;28;20282;-79
2022/06/15 08:47:19;;;;;;;5.93;1.80;;;;;;;20.32;39.70;94385.81;5104487;28;20024;-81
2022/06/15 08:50:02;;;;;;;6.40;1.80;;;;;;;20.31;38.32;94389.63;5022430;28;20093;-78
2022/06/15 08:52:42;;;;;;;4.47;1.40;;;;;;;20.33;39.30;94385.41;5022740;28;20072;-81
2022/06/15 08:55:16;;;;;;;7.78;2.13;;;;;;;20.26;39.35;94390.72;5078796;28;20283;-77
2022/06/15 08:57:53;;;;;;;6.07;1.50;;;;;;;20.31;37.50;94378.81;5104248;28;20047;-77
2022/06/15 09:00:27;;;;;;;4.68;1.77;;;;;;;20.39;41.33;94385.91;5104227;28;20219;-78
2022/06/15 09:03:18;;;;;;;2.65;1.48;;;;;;;20.43;39.19;94392.94;5104316;28;20012;-78
2022/06/15 09:05:59;;;;;;;4.55;1.50;;;;;;;20.47;37.04;94398.41;5099259;28;20234;-78
2022/06/15 09:08:54;;;;;;;3.15;1.30;;;;;;;20.40;38.37;94380.13;5104290;28;20026;-78
2022/06/15 09:11:35;;;;;;;3.60;1.23;;;;;;;20.53;37.77;94380.69;5093153;28;20089;-79
2022/06/15 09:14:22;;;;;;;3.97;1.38;;;;;;;20.58;37.64;94382.34;5104001;28;20142;-80
2022/06/15 09:17:10;;;;;;;6.32;1.65;;;;;;;20.61;38.43;94387.03;5104035;28;20038;-78
2022/06/15 09:19:44;;;;;;;2.63;1.52;;;;;;;20.54;36.70;94387.69;5103970;28;20028;-77
2022/06/15 09:22:17;;;;;;;3.97;1.27;;;;;;;20.55;37.49;94383.84;5103745;28;20098;-78
2022/06/15 09:24:49;;;;;;;4.55;1.30;;;;;;;20.64;37.67;94392.53;5103733;28;20031;-79
2022/06/15 09:27:23;;;;;;;3.15;1.30;;;;;;;20.58;35.22;94388.56;5103596;28;20067;-78
2022/06/15 09:29:57;;;;;;;3.38;1.50;;;;;;;20.60;33.99;94382.78;5103625;28;20035;-78
2022/06/15 09:32:35;;;;;;;3.45;1.50;;;;;;;20.67;34.50;94384.81;5085609;28;20027;-77
2022/06/15 09:35:20;;;;;;;5.35;1.95;;;;;;;20.76;37.74;94398.88;5103562;28;20238;-78
2022/06/15 09:37:50;;;;;;;3.83;1.30;;;;;;;20.83;36.85;94388.16;5103106;28;20023;-79
2022/06/15 09:40:16;;;;;;;5.75;1.65;;;;;;;20.96;35.86;94386.00;5085260;28;20052;-78
2022/06/15 09:43:06;;;;;;;5.07;1.70;;;;;;;21.11;35.40;94381.56;5085500;28;20230;-81
2022/06/15 09:45:41;;;;;;;4.50;1.77;;;;;;;21.12;36.29;94380.41;5103483;28;20036;-77
2022/06/15 09:48:23;;;;;;;5.68;1.63;;;;;;;21.13;37.42;94377.34;5103385;28;20027;-77
2022/06/15 09:51:02;;;;;;;7.00;2.10;;;;;;;21.23;37.02;94378.63;5103431;28;20228;-77
2022/06/15 09:53:41;;;;;;;5.22;1.80;;;;;;;21.36;38.38;94381.88;5103364;28;20020;-79
2022/06/15 09:56:10;;;;;;;8.27;1.80;;;;;;;21.50;38.44;94381.31;5102948;28;20091;-78
2022/06/15 09:58:54;;;;;;;10.55;2.13;;;;;;;21.64;37.62;94392.31;5103063;28;20020;-79
2022/06/15 10:01:22;;;;;;;2.85;1.40;;;;;;;21.70;35.03;94362.94;5103012;28;20125;-80
2022/06/15 10:03:51;;;;;;;5.00;1.70;;;;;;;21.69;35.45;94367.56;5102837;28;20020;-80
2022/06/15 10:06:23;;;;;;;5.80;1.42;;;;;;;21.77;35.80;94371.13;5102788;28;20085;-79
2022/06/15 10:08:48;;;;;;;6.78;1.75;;;;;;;21.70;35.91;94374.56;5102461;28;20034;-79
2022/06/15 10:11:27;;;;;;;4.88;1.55;;;;;;;21.67;35.70;94369.09;5084555;28;20059;-79
2022/06/15 10:13:53;;;;;;;6.50;1.50;;;;;;;21.70;35.38;94374.56;5102298;28;20024;-80
2022/06/15 10:16:24;;;;;;;3.40;1.60;;;;;;;21.70;36.71;94379.97;5102424;28;20314;-79
2022/06/15 10:18:53;;;;;;;6.13;1.85;;;;;;;21.71;36.92;94376.09;5102668;28;20032;-79
2022/06/15 10:21:23;;;;;;;3.92;1.30;;;;;;;21.81;36.12;94367.28;5102313;28;20027;-80
2022/06/15 10:24:06;;;;;;;2.25;1.25;;;;;;;21.94;35.19;94377.88;5102287;28;20299;-80
2022/06/15 10:26:37;;;;;;;3.45;1.58;;;;;;;21.99;35.02;94369.41;5102533;28;20027;-81
2022/06/15 10:29:27;;;;;;;7.03;1.85;;;;;;;22.05;34.65;94367.91;5102352;28;20106;-78
2022/06/15 10:32:09;;;;;;;7.00;1.52;;;;;;;22.08;36.43;94366.38;5083856;28;20302;-79
2022/06/15 10:34:35;;;;;;;3.40;1.35;;;;;;;22.07;35.33;94365.59;5102304;28;20050;-80
2022/06/15 10:37:31;;;;;;;4.75;1.88;;;;;;;21.99;35.76;94369.41;5103167;28;20027;-81
2022/06/15 10:40:01;;;;;;;5.72;1.58;;;;;;;21.96;35.12;94365.50;5102339;28;20261;-81
2022/06/15 10:42:37;;;;;;;2.83;1.50;;;;;;;22.00;36.05;94376.38;5106581;28;20020;-81
2022/06/15 10:45:19;;;;;;;4.18;1.60;;;;;;;22.10;35.75;94369.50;5106410;28;20066;-80
2022/06/15 10:47:52;;;;;;;4.03;1.75;;;;;;;22.03;35.93;94364.78;5106621;28;20115;-81
2022/06/15 10:50:31;;;;;;;11.05;1.77;;;;;;;22.14;35.65;94371.09;5106541;28;20373;-81
2022/06/15 10:53:00;;;;;;;9.27;1.52;;;;;;;22.24;35.51;94354.13;5106375;28;20077;-80
2022/06/15 11:04:28;;;;;;;5.55;1.60;;;;;;;23.05;35.59;94350.84;5106055;28;20046;-81
2022/06/15 11:07:11;;;;;;;6.55;2.30;;;;;;;23.07;33.87;94364.84;5106224;28;20016;-80
2022/06/15 11:09:40;;;;;;;4.90;1.58;;;;;;;22.96;31.64;94359.28;5087909;28;20024;-81
2022/06/15 11:12:21;;;;;;;7.80;2.00;;;;;;;22.82;33.07;94351.84;5105921;28;20054;-80
2022/06/15 11:14:59;;;;;;;12.88;2.00;;;;;;;22.91;33.66;94360.44;5105652;28;20043;-81
2022/06/15 11:20:31;;;;;;;3.20;1.40;;;;;;;22.89;33.47;94351.88;5105823;28;20107;-81
2022/06/15 11:23:16;;;;;;;4.22;1.38;;;;;;;22.98;31.84;94357.00;5087864;28;20027;-82
2022/06/15 11:29:14;;;;;;;5.60;1.92;;;;;;;23.05;33.70;94337.25;5105755;28;20034;-83
2022/06/15 11:31:41;;;;;;;3.28;2.05;;;;;;;23.30;37.58;94329.97;5106016;28;20031;-77
2022/06/15 11:34:14;;;;;;;5.75;1.45;;;;;;;23.56;34.45;94326.16;5105950;28;20310;-78
2022/06/15 11:36:51;;;;;;;4.15;1.58;;;;;;;23.76;33.02;94328.56;5105828;28;20023;-79
2022/06/15 11:39:25;;;;;;;8.13;1.70;;;;;;;23.82;31.61;94329.75;5105844;28;20265;-82
2022/06/15 11:41:52;;;;;;;5.68;1.55;;;;;;;23.79;31.77;94331.31;5105547;28;20020;-77
2022/06/15 11:44:35;;;;;;;2.80;1.60;;;;;;;23.80;30.05;94330.16;5105464;28;20110;-78
2022/06/15 11:47:13;;;;;;;1.85;1.05;;;;;;;23.78;30.18;94343.38;5105722;28;20062;-81
2022/06/15 11:50:11;;;;;;;4.03;1.77;;;;;;;23.88;29.78;94332.91;5104210;28;20027;-80
2022/06/15 11:52:49;;;;;;;4.05;1.67;;;;;;;23.87;29.40;94334.03;5105516;28;20027;-80
2022/06/15 11:55:39;;;;;;;2.85;1.40;;;;;;;23.86;29.10;94324.34;5105362;28;20035;-81
2022/06/15 11:58:13;;;;;;;4.60;1.33;;;;;;;23.92;27.73;94328.22;5105541;28;20047;-81
2022/06/15 12:01:02;;;;;;;12.60;1.40;;;;;;;23.94;29.25;94320.47;5105420;28;20244;-79
2022/06/15 12:03:35;;;;;;;6.63;1.63;;;;;;;24.12;29.98;94318.53;5105600;28;20087;-80
2022/06/15 12:06:21;;;;;;;3.90;1.52;;;;;;;24.27;29.30;94311.13;5105415;28;20020;-77
2022/06/15 12:08:53;;;;;;;3.78;1.75;;;;;;;24.44;30.84;94309.56;5105010;28;20024;-77
2022/06/15 12:14:39;;;;;;;10.23;1.80;;;;;;;24.73;32.14;94320.44;5105000;28;20214;-78